Time;durP1;ratioP1;P1;durP2;ratioP2;P2;SDS_P1;SDS_P2;PMS_P1;PMS_P2;Temp;Humidity;BMP_temperature;BMP_pressure;BME280_temperature;BME280_humidity;BME280_pressure;Samples;Min_cycle;Max_cycle;Signal;HPM_P1;HPM_P2
2021/03/06 00:00:19;;;;;;;8.40;3.93;;;;;;;-5.10;100.00;102364.13;5017056;28;20966;-76
2021/03/06 00:02:46;;;;;;;6.23;4.13;;;;;;;-5.21;100.00;102367.63;5015200;28;20804;-75
2021/03/06 00:05:13;;;;;;;6.47;3.73;;;;;;;-5.14;100.00;102370.69;5016648;28;21065;-76
2021/03/06 00:07:40;;;;;;;5.50;3.70;;;;;;;-5.34;100.00;102365.94;5012713;28;20561;-75
2021/03/06 00:10:10;;;;;;;6.40;3.90;;;;;;;-5.40;100.00;102368.94;4997646;28;20578;-74
2021/03/06 00:12:37;;;;;;;6.30;3.53;;;;;;;-5.30;100.00;102378.06;4995079;28;20804;-74
2021/03/06 00:15:04;;;;;;;6.83;4.17;;;;;;;-5.26;100.00;102371.50;5017488;28;20964;-75
2021/03/06 00:17:30;;;;;;;6.00;3.93;;;;;;;-5.40;100.00;102378.22;5015163;28;20477;-76
2021/03/06 00:19:56;;;;;;;6.47;3.60;;;;;;;-5.54;100.00;102379.84;5014305;28;20880;-76
2021/03/06 00:22:22;;;;;;;5.47;3.00;;;;;;;-5.71;100.00;102387.22;5020635;28;20682;-76
2021/03/06 00:24:48;;;;;;;5.70;3.67;;;;;;;-5.72;100.00;102387.09;5020302;28;20489;-76
2021/03/06 00:27:14;;;;;;;6.50;3.53;;;;;;;-5.75;100.00;102384.34;5020963;28;20706;-76
2021/03/06 00:29:40;;;;;;;4.83;3.63;;;;;;;-5.62;100.00;102381.88;4998557;28;20279;-76
2021/03/06 00:32:06;;;;;;;3.33;3.00;;;;;;;-5.59;100.00;102382.09;5021775;28;20192;-76
2021/03/06 00:34:51;;;;;;;7.00;3.93;;;;;;;-5.69;100.00;102378.81;5022250;28;20223;-75
2021/03/06 00:37:18;;;;;;;4.90;3.70;;;;;;;-5.70;100.00;102385.53;5020908;28;20805;-76
2021/03/06 00:39:44;;;;;;;6.70;2.97;;;;;;;-5.78;100.00;102384.16;5023714;28;20454;-76
2021/03/06 00:42:10;;;;;;;5.30;3.27;;;;;;;-5.80;100.00;102373.00;5025690;28;20482;-76
2021/03/06 00:44:35;;;;;;;5.67;3.20;;;;;;;-5.65;100.00;102373.16;5022138;28;20214;-76
2021/03/06 00:47:01;;;;;;;4.70;3.43;;;;;;;-5.60;100.00;102376.88;5025040;28;20227;-76
2021/03/06 00:49:28;;;;;;;7.43;3.50;;;;;;;-5.69;100.00;102372.06;5020085;28;20195;-76
2021/03/06 00:51:54;;;;;;;4.70;3.50;;;;;;;-5.77;100.00;102371.56;5008250;28;20925;-76
2021/03/06 00:54:23;;;;;;;5.50;3.40;;;;;;;-5.67;100.00;102367.97;5015523;28;20441;-75
2021/03/06 00:56:53;;;;;;;5.10;3.27;;;;;;;-5.88;100.00;102369.06;5028245;28;20923;-76
2021/03/06 01:03:08;;;;;;;5.10;3.10;;;;;;;-5.81;100.00;102367.03;5028352;28;20457;-75
2021/03/06 01:05:34;;;;;;;6.10;3.23;;;;;;;-5.65;100.00;102356.25;5029876;28;20462;-75
2021/03/06 01:08:00;;;;;;;4.30;3.47;;;;;;;-5.82;100.00;102350.03;5028967;28;20223;-76
2021/03/06 01:10:30;;;;;;;6.60;3.43;;;;;;;-5.93;100.00;102353.47;5029044;28;20454;-76
2021/03/06 01:12:56;;;;;;;8.50;4.23;;;;;;;-6.02;100.00;102346.16;5024092;28;20697;-75
2021/03/06 01:15:22;;;;;;;5.10;3.03;;;;;;;-5.97;100.00;102354.97;5025852;28;20461;-76
2021/03/06 01:17:48;;;;;;;5.17;3.70;;;;;;;-5.95;100.00;102345.75;5018426;28;20208;-76
2021/03/06 01:24:01;;;;;;;4.30;3.10;;;;;;;-5.96;100.00;102344.03;5028922;28;20196;-75
2021/03/06 01:26:28;;;;;;;3.90;3.07;;;;;;;-6.00;100.00;102338.63;5029187;28;20468;-75
2021/03/06 01:28:55;;;;;;;5.73;3.37;;;;;;;-5.94;100.00;102334.81;5026023;28;20473;-76
2021/03/06 01:31:22;;;;;;;4.63;3.17;;;;;;;-5.86;100.00;102332.78;5028440;28;20462;-75
2021/03/06 01:33:48;;;;;;;6.60;3.50;;;;;;;-5.74;100.00;102335.28;5024419;28;20806;-76
2021/03/06 01:36:14;;;;;;;4.90;2.83;;;;;;;-5.83;100.00;102333.00;5029432;28;20442;-75
2021/03/06 01:38:40;;;;;;;4.37;3.10;;;;;;;-5.80;100.00;102335.78;5027685;28;20216;-75
2021/03/06 01:44:55;;;;;;;3.53;2.67;;;;;;;-5.90;100.00;102319.00;5066243;23;20489;-85
2021/03/06 01:47:21;;;;;;;6.70;3.27;;;;;;;-5.92;100.00;102323.09;5025897;28;20796;-85
2021/03/06 01:49:47;;;;;;;4.53;2.90;;;;;;;-5.92;100.00;102319.69;5023894;28;20458;-85
2021/03/06 01:52:14;;;;;;;4.53;2.77;;;;;;;-5.85;100.00;102321.88;5028736;28;21017;-85
2021/03/06 01:57:10;;;;;;;4.33;2.60;;;;;;;-5.98;100.00;102322.75;5010128;28;20989;-85
2021/03/06 02:02:04;;;;;;;5.37;2.90;;;;;;;-5.79;100.00;102321.41;5001812;28;20494;-85
2021/03/06 02:04:33;;;;;;;4.53;3.03;;;;;;;-5.72;100.00;102316.84;4986116;28;20487;-85
2021/03/06 02:07:01;;;;;;;3.87;2.50;;;;;;;-5.96;100.00;102313.56;4987258;28;20464;-85
2021/03/06 02:09:27;;;;;;;3.20;2.57;;;;;;;-5.91;100.00;102309.63;5063282;23;20477;-85
2021/03/06 02:14:54;;;;;;;5.93;2.50;;;;;;;-5.77;100.00;102315.66;5127411;27;20935;-72
2021/03/06 02:17:31;;;;;;;8.17;2.93;;;;;;;-5.99;100.00;102317.56;5125900;27;21095;-71
2021/03/06 02:20:22;;;;;;;4.60;2.70;;;;;;;-5.93;100.00;102318.81;5121298;28;20989;-72
2021/03/06 02:23:07;;;;;;;4.07;2.70;;;;;;;-6.01;100.00;102321.66;5120802;27;20529;-71
2021/03/06 02:25:54;;;;;;;3.70;2.77;;;;;;;-6.01;100.00;102321.66;5123640;27;20437;-72
2021/03/06 02:28:33;;;;;;;2.90;2.30;;;;;;;-5.84;100.00;102322.75;5122957;27;20549;-71
2021/03/06 02:31:03;;;;;;;4.53;2.67;;;;;;;-5.81;100.00;102326.38;5114526;28;20430;-71
2021/03/06 02:33:31;;;;;;;3.03;2.20;;;;;;;-5.84;100.00;102328.72;5120366;27;20831;-71
2021/03/06 02:36:01;;;;;;;4.13;2.67;;;;;;;-5.91;100.00;102324.88;5126775;27;20453;-71
2021/03/06 02:38:29;;;;;;;5.53;3.23;;;;;;;-6.01;100.00;102327.59;5124116;27;20464;-71
2021/03/06 02:40:57;;;;;;;3.03;2.50;;;;;;;-5.83;100.00;102332.13;5126211;27;20456;-71
2021/03/06 02:43:25;;;;;;;4.60;2.93;;;;;;;-5.86;100.00;102325.19;5126462;27;20498;-72
2021/03/06 02:45:52;;;;;;;4.63;2.50;;;;;;;-5.80;100.00;102335.78;5125457;27;20477;-72
2021/03/06 02:48:19;;;;;;;5.37;2.90;;;;;;;-5.90;100.00;102329.16;5122036;28;20455;-71
2021/03/06 02:50:45;;;;;;;5.27;2.87;;;;;;;-6.04;100.00;102329.06;5122702;27;20442;-71
2021/03/06 02:53:11;;;;;;;5.03;2.10;;;;;;;-6.24;100.00;102332.72;5129602;27;20470;-72
2021/03/06 02:55:37;;;;;;;4.63;2.93;;;;;;;-5.90;100.00;102326.63;5126722;27;20549;-72
2021/03/06 02:58:14;;;;;;;3.93;2.30;;;;;;;-5.81;100.00;102330.56;5126793;27;21105;-72
2021/03/06 03:00:42;;;;;;;3.40;2.47;;;;;;;-5.89;100.00;102325.00;5127235;27;20195;-72
2021/03/06 03:03:22;;;;;;;4.87;2.23;;;;;;;-6.05;100.00;102333.25;5118157;27;20436;-71
2021/03/06 03:05:57;;;;;;;3.60;2.33;;;;;;;-6.04;100.00;102336.66;5123911;28;20466;-72
2021/03/06 03:08:29;;;;;;;5.77;2.30;;;;;;;-6.21;100.00;102336.38;5115258;28;20518;-72
2021/03/06 03:10:58;;;;;;;6.10;2.30;;;;;;;-6.15;100.00;102336.81;5119668;28;20491;-71
2021/03/06 03:13:28;;;;;;;4.50;2.70;;;;;;;-6.23;100.00;102330.31;5122204;28;21066;-71
2021/03/06 03:16:02;;;;;;;5.03;2.70;;;;;;;-6.21;100.00;102325.34;5125934;27;20442;-72
2021/03/06 03:18:35;;;;;;;5.07;2.70;;;;;;;-6.24;100.00;102332.72;5121389;27;20462;-71
2021/03/06 03:21:04;;;;;;;3.23;2.33;;;;;;;-6.39;100.00;102328.34;5120437;28;20438;-72
2021/03/06 03:23:34;;;;;;;4.60;2.57;;;;;;;-6.37;100.00;102331.88;5126211;27;20442;-71
2021/03/06 03:26:02;;;;;;;5.77;2.30;;;;;;;-6.29;100.00;102328.22;5106273;28;20443;-72
2021/03/06 03:28:31;;;;;;;6.47;2.63;;;;;;;-6.24;100.00;102327.66;5112664;28;20507;-71
2021/03/06 03:30:59;;;;;;;3.00;2.53;;;;;;;-6.40;100.00;102328.25;5112543;28;20555;-71
2021/03/06 03:33:27;;;;;;;6.50;2.90;;;;;;;-6.43;100.00;102330.59;5111283;28;20826;-72
2021/03/06 03:35:54;;;;;;;3.80;2.60;;;;;;;-6.29;100.00;102334.97;5106411;28;20513;-70
2021/03/06 03:38:22;;;;;;;6.97;2.03;;;;;;;-6.37;100.00;102331.88;5110633;28;20466;-72
2021/03/06 03:40:48;;;;;;;4.50;2.30;;;;;;;-6.10;100.00;102334.59;5112200;28;20451;-71
2021/03/06 03:43:15;;;;;;;4.70;2.10;;;;;;;-6.13;100.00;102332.72;5111946;27;20439;-72
2021/03/06 03:45:41;;;;;;;3.20;2.63;;;;;;;-6.07;100.00;102337.31;5109920;28;20467;-71
2021/03/06 03:48:10;;;;;;;3.77;2.03;;;;;;;-6.10;100.00;102339.69;5097987;28;20835;-71
2021/03/06 03:50:36;;;;;;;6.23;2.57;;;;;;;-6.13;100.00;102336.91;5110137;28;20499;-71
2021/03/06 03:53:04;;;;;;;2.47;2.20;;;;;;;-5.88;100.00;102341.09;5112422;28;20458;-71
2021/03/06 03:55:30;;;;;;;3.23;2.30;;;;;;;-5.99;100.00;102348.03;5108165;28;20503;-71
2021/03/06 03:57:57;;;;;;;3.40;2.27;;;;;;;-5.94;100.00;102346.66;5111869;28;20466;-71
2021/03/06 04:00:23;;;;;;;4.33;2.27;;;;;;;-6.09;100.00;102346.50;5110831;28;20851;-71
2021/03/06 04:02:50;;;;;;;3.00;2.00;;;;;;;-6.05;100.00;102350.13;5110288;28;20439;-72
2021/03/06 04:05:16;;;;;;;4.13;2.00;;;;;;;-6.24;100.00;102350.50;5111648;28;20888;-71
2021/03/06 04:07:43;;;;;;;2.50;1.93;;;;;;;-6.06;100.00;102358.56;5109503;28;20530;-72
2021/03/06 04:10:12;;;;;;;3.93;2.10;;;;;;;-5.92;100.00;102353.59;5106353;28;20454;-71
2021/03/06 04:12:39;;;;;;;3.00;1.87;;;;;;;-6.30;100.00;102354.41;5103410;28;20455;-72
2021/03/06 04:15:06;;;;;;;4.20;2.17;;;;;;;-6.13;100.00;102352.16;5110235;28;20534;-71
2021/03/06 04:17:32;;;;;;;2.73;1.80;;;;;;;-6.05;100.00;102363.75;5105790;28;21053;-71
2021/03/06 04:19:58;;;;;;;4.27;1.77;;;;;;;-6.11;100.00;102366.72;5102820;28;20550;-71
2021/03/06 04:22:24;;;;;;;3.13;2.20;;;;;;;-6.15;100.00;102369.81;5111422;28;20960;-72
2021/03/06 04:24:51;;;;;;;4.63;2.47;;;;;;;-6.18;100.00;102364.53;5109851;28;20471;-72
2021/03/06 04:27:18;;;;;;;4.17;2.43;;;;;;;-6.29;100.00;102367.97;5109223;28;20879;-71
2021/03/06 04:29:44;;;;;;;5.07;2.30;;;;;;;-6.38;100.00;102368.22;5111432;28;20492;-72
2021/03/06 04:32:09;;;;;;;2.70;2.20;;;;;;;-6.41;100.00;102362.03;5099955;28;20973;-71
2021/03/06 04:34:35;;;;;;;4.53;2.53;;;;;;;-6.50;100.00;102364.81;5106687;28;20565;-72
2021/03/06 04:37:01;;;;;;;3.90;2.70;;;;;;;-6.30;100.00;102353.50;5104009;28;20197;-72
2021/03/06 04:39:28;;;;;;;3.40;1.80;;;;;;;-6.23;100.00;102350.63;5110609;28;20446;-72
2021/03/06 04:41:53;;;;;;;3.33;1.93;;;;;;;-6.34;100.00;102357.50;5108425;28;20442;-71
2021/03/06 04:44:20;;;;;;;2.70;2.00;;;;;;;-6.40;100.00;102359.63;5104152;28;20957;-71
2021/03/06 04:46:46;;;;;;;2.23;2.03;;;;;;;-6.34;100.00;102352.41;5103274;28;20442;-71
2021/03/06 04:49:12;;;;;;;2.73;2.30;;;;;;;-6.41;100.00;102356.97;5101460;28;20455;-71
2021/03/06 04:51:38;;;;;;;2.50;2.30;;;;;;;-6.44;100.00;102362.69;5108411;28;20506;-72
2021/03/06 04:54:05;;;;;;;3.67;2.50;;;;;;;-6.31;100.00;102361.91;5101528;28;20218;-72
2021/03/06 04:56:31;;;;;;;4.37;3.47;;;;;;;-6.29;100.00;102358.69;5111132;28;20455;-72
2021/03/06 04:58:57;;;;;;;5.00;2.77;;;;;;;-6.38;100.00;102367.34;5108910;28;20992;-72
2021/03/06 05:01:24;;;;;;;13.30;5.53;;;;;;;-6.36;100.00;102366.66;5107046;28;20544;-71
2021/03/06 05:03:50;;;;;;;8.93;4.10;;;;;;;-6.28;100.00;102368.09;5110609;28;20498;-72
2021/03/06 05:06:16;;;;;;;6.67;3.73;;;;;;;-6.28;100.00;102368.09;5104656;28;20440;-72
2021/03/06 05:08:42;;;;;;;6.77;4.47;;;;;;;-6.42;100.00;102371.31;5110772;28;20546;-72
2021/03/06 05:11:08;;;;;;;9.33;3.80;;;;;;;-6.54;100.00;102375.53;5099148;28;20451;-72
2021/03/06 05:13:35;;;;;;;5.17;3.57;;;;;;;-6.52;100.00;102376.50;5110183;28;20504;-72
2021/03/06 05:16:01;;;;;;;7.40;3.87;;;;;;;-6.46;100.00;102371.84;5109020;28;20987;-71
2021/03/06 05:18:28;;;;;;;5.93;3.27;;;;;;;-6.40;100.00;102372.31;5110513;28;20987;-71
2021/03/06 05:20:54;;;;;;;6.80;3.43;;;;;;;-6.60;100.00;102375.06;5110313;28;20447;-72
2021/03/06 05:23:20;;;;;;;6.13;2.77;;;;;;;-6.65;100.00;102382.34;5107059;28;20532;-71
2021/03/06 05:25:46;;;;;;;5.20;2.80;;;;;;;-6.67;100.00;102384.78;5102358;28;20460;-71
2021/03/06 05:28:12;;;;;;;4.97;2.93;;;;;;;-6.64;100.00;102393.41;5103004;28;20459;-71
2021/03/06 05:30:38;;;;;;;4.83;3.10;;;;;;;-6.67;100.00;102392.38;5108886;28;20449;-72
2021/03/06 05:33:05;;;;;;;8.97;2.97;;;;;;;-6.58;100.00;102393.81;5109501;28;20884;-71
2021/03/06 05:35:31;;;;;;;3.97;2.53;;;;;;;-6.57;100.00;102396.47;5107853;28;20453;-71
2021/03/06 05:37:57;;;;;;;3.93;2.53;;;;;;;-6.74;100.00;102397.78;5109526;28;20463;-72
2021/03/06 05:40:29;;;;;;;5.23;2.67;;;;;;;-6.65;100.00;102395.03;5100574;28;20540;-72
2021/03/06 05:42:55;;;;;;;4.97;2.97;;;;;;;-6.66;100.00;102390.75;5105357;28;20193;-71
2021/03/06 05:45:21;;;;;;;5.10;2.63;;;;;;;-6.69;100.00;102395.59;5109374;27;20438;-71
2021/03/06 05:47:47;;;;;;;2.77;2.30;;;;;;;-6.48;100.00;102398.78;5103742;28;20482;-71
2021/03/06 05:50:13;;;;;;;4.87;2.57;;;;;;;-6.44;100.00;102398.22;5103675;28;20509;-71
2021/03/06 05:52:41;;;;;;;2.47;2.07;;;;;;;-6.37;100.00;102408.03;5101062;27;20710;-71
2021/03/06 05:55:12;;;;;;;3.10;2.10;;;;;;;-6.37;100.00;102408.03;5109787;28;20442;-72
2021/03/06 05:57:40;;;;;;;2.47;2.00;;;;;;;-6.41;100.00;102402.66;5101690;28;20570;-72
2021/03/06 06:00:08;;;;;;;2.87;2.57;;;;;;;-6.43;100.00;102401.66;5110064;28;20479;-72
2021/03/06 06:02:34;;;;;;;7.87;3.10;;;;;;;-6.48;100.00;102402.19;5107090;28;20951;-71
2021/03/06 06:05:01;;;;;;;4.60;2.77;;;;;;;-6.35;100.00;102403.97;5105795;28;20451;-72
2021/03/06 06:07:28;;;;;;;2.50;2.10;;;;;;;-6.35;100.00;102403.06;5104571;28;20598;-71
2021/03/06 06:09:55;;;;;;;3.97;2.70;;;;;;;-6.31;100.00;102397.47;5113375;27;20462;-71
2021/03/06 06:12:21;;;;;;;3.10;2.40;;;;;;;-6.33;100.00;102406.59;5101514;28;20439;-71
2021/03/06 06:14:47;;;;;;;5.57;2.40;;;;;;;-6.34;100.00;102407.41;5103931;28;20546;-71
2021/03/06 06:17:13;;;;;;;4.50;2.40;;;;;;;-6.20;100.00;102408.38;5098694;28;20562;-71
2021/03/06 06:19:40;;;;;;;3.37;2.30;;;;;;;-6.13;100.00;102413.09;5101936;28;20524;-71
2021/03/06 06:22:15;;;;;;;4.13;2.70;;;;;;;-6.13;100.00;102416.50;5108793;28;20621;-71
2021/03/06 06:24:43;;;;;;;3.43;2.33;;;;;;;-6.02;100.00;102412.19;5101745;28;20472;-71
2021/03/06 06:27:10;;;;;;;4.53;2.50;;;;;;;-6.16;100.00;102416.28;5099055;28;21091;-72
2021/03/06 06:29:38;;;;;;;3.97;2.80;;;;;;;-6.13;100.00;102423.25;5107269;28;20476;-72
2021/03/06 06:32:05;;;;;;;4.17;2.70;;;;;;;-6.16;100.00;102425.59;5108226;28;20443;-72
2021/03/06 06:34:31;;;;;;;4.07;3.00;;;;;;;-5.99;100.00;102426.78;5108725;28;20570;-72
2021/03/06 06:36:57;;;;;;;4.30;2.90;;;;;;;-6.05;100.00;102439.03;5109325;28;20443;-72
2021/03/06 06:39:31;;;;;;;5.50;3.00;;;;;;;-5.98;100.00;102434.50;5109863;28;20443;-71
2021/03/06 06:41:58;;;;;;;5.80;4.17;;;;;;;-6.03;100.00;102440.00;5114259;28;21010;-71
2021/03/06 06:44:26;;;;;;;4.40;3.60;;;;;;;-5.93;100.00;102435.69;5113987;28;20832;-71
2021/03/06 06:46:53;;;;;;;4.97;3.23;;;;;;;-6.00;100.00;102446.19;5103381;28;20537;-71
2021/03/06 06:49:20;;;;;;;5.07;3.20;;;;;;;-5.92;100.00;102444.16;5113127;28;20450;-72
2021/03/06 06:52:03;;;;;;;4.40;3.10;;;;;;;-5.84;100.00;102444.69;5108849;27;20451;-72
2021/03/06 07:01:44;;;;;;;4.63;3.33;;;;;;;-5.33;100.00;102451.59;5113301;27;20871;-72
2021/03/06 07:04:12;;;;;;;4.07;3.30;;;;;;;-5.17;100.00;102451.88;5099094;28;20443;-72
2021/03/06 07:06:38;;;;;;;4.90;4.07;;;;;;;-5.05;100.00;102456.00;5105126;28;20448;-72
2021/03/06 07:09:12;;;;;;;5.80;3.97;;;;;;;-4.92;100.00;102457.69;5111715;28;20462;-71
2021/03/06 07:11:39;;;;;;;5.80;3.60;;;;;;;-4.83;100.00;102455.78;5111876;28;20443;-71
2021/03/06 07:14:06;;;;;;;4.47;3.57;;;;;;;-4.76;100.00;102463.88;5111113;27;21878;-71
2021/03/06 07:16:57;;;;;;;7.50;4.07;;;;;;;-4.61;100.00;102473.31;5121695;27;20453;-72
2021/03/06 07:19:25;;;;;;;4.77;3.27;;;;;;;-4.49;99.72;102463.91;5114992;27;20533;-72
2021/03/06 07:21:52;;;;;;;5.87;4.20;;;;;;;-4.41;99.25;102465.31;5115111;27;20454;-71
2021/03/06 07:24:18;;;;;;;6.23;3.93;;;;;;;-4.27;98.79;102468.75;5119430;27;20446;-71
2021/03/06 07:26:44;;;;;;;6.70;4.33;;;;;;;-4.16;98.28;102471.09;5111047;28;20862;-72
2021/03/06 07:29:10;;;;;;;12.40;4.63;;;;;;;-4.06;98.03;102469.22;5116236;27;20461;-71
2021/03/06 07:31:38;;;;;;;9.23;5.23;;;;;;;-3.95;98.23;102472.44;5114642;27;20445;-71
2021/03/06 07:34:08;;;;;;;9.37;4.63;;;;;;;-3.85;97.27;102468.81;5112131;27;20471;-71
2021/03/06 07:36:37;;;;;;;12.10;4.80;;;;;;;-3.75;96.94;102470.25;5112694;27;20451;-72
2021/03/06 07:39:05;;;;;;;7.43;4.67;;;;;;;-3.66;96.32;102466.59;5111283;28;20459;-72
2021/03/06 07:41:35;;;;;;;7.27;4.57;;;;;;;-3.55;96.09;102472.34;5103487;28;20449;-71
2021/03/06 07:44:01;;;;;;;9.00;5.30;;;;;;;-3.44;95.46;102473.00;5110997;28;20822;-71
2021/03/06 07:46:28;;;;;;;8.07;5.10;;;;;;;-3.35;95.87;102468.44;5110081;28;20789;-72
2021/03/06 07:48:57;;;;;;;7.50;4.80;;;;;;;-3.26;95.43;102478.31;5110535;28;20468;-70
2021/03/06 07:51:26;;;;;;;14.43;5.70;;;;;;;-3.16;95.53;102472.97;5110486;28;20511;-71
2021/03/06 07:53:52;;;;;;;9.57;6.20;;;;;;;-3.06;95.41;102467.63;5110958;28;20463;-72
2021/03/06 07:56:18;;;;;;;9.70;5.90;;;;;;;-2.95;94.01;102475.06;5111455;28;20448;-72
2021/03/06 07:58:48;;;;;;;10.20;5.50;;;;;;;-2.85;93.23;102479.88;5110779;28;20467;-71
2021/03/06 08:01:26;;;;;;;10.07;5.60;;;;;;;-2.75;93.09;102471.97;5106951;27;20446;-71
2021/03/06 08:03:52;;;;;;;8.37;5.43;;;;;;;-2.64;92.87;102461.50;5096085;28;20522;-71
2021/03/06 08:06:22;;;;;;;7.47;5.27;;;;;;;-2.50;91.07;102461.50;5108973;28;20594;-72
2021/03/06 08:08:57;;;;;;;8.83;4.93;;;;;;;-2.41;91.69;102461.13;5109981;28;20235;-71
2021/03/06 08:11:25;;;;;;;7.60;4.80;;;;;;;-2.24;90.61;102467.16;5107424;28;20525;-71
2021/03/06 08:13:52;;;;;;;6.77;4.50;;;;;;;-2.12;89.36;102461.88;5107838;28;20480;-72
2021/03/06 08:16:40;;;;;;;7.57;4.67;;;;;;;-1.97;87.12;102462.72;5106797;28;20449;-72
2021/03/06 08:19:24;;;;;;;6.30;4.10;;;;;;;-1.84;87.51;102464.25;5100358;28;20480;-71
2021/03/06 08:21:51;;;;;;;6.70;4.50;;;;;;;-1.74;86.21;102463.94;5104172;28;20447;-71
2021/03/06 08:24:29;;;;;;;6.77;4.77;;;;;;;-1.59;85.84;102466.44;5102266;28;20639;-71
2021/03/06 08:27:13;;;;;;;8.63;4.33;;;;;;;-1.40;83.70;102472.53;5096364;28;20506;-72
2021/03/06 08:29:40;;;;;;;5.50;4.70;;;;;;;-1.27;83.43;102461.25;5088679;28;20483;-71
2021/03/06 08:32:07;;;;;;;7.27;4.73;;;;;;;-1.15;82.22;102467.00;5078926;28;20280;-71
2021/03/06 08:34:34;;;;;;;20.70;11.07;;;;;;;-1.01;80.66;102473.69;5078410;28;20224;-71
2021/03/06 08:37:31;;;;;;;6.07;4.57;;;;;;;-0.87;79.14;102469.28;5078610;28;20205;-72
2021/03/06 08:40:06;;;;;;;5.13;3.27;;;;;;;-0.71;78.05;102477.72;5081454;28;20284;-72
2021/03/06 08:42:34;;;;;;;5.40;3.70;;;;;;;-0.61;77.82;102470.56;5097543;28;20204;-72
2021/03/06 08:45:01;;;;;;;5.50;3.57;;;;;;;-0.50;77.87;102477.91;5108690;27;20573;-71
2021/03/06 08:47:29;;;;;;;4.63;3.07;;;;;;;-0.41;78.23;102483.47;5088733;28;20227;-71
2021/03/06 08:49:57;;;;;;;3.80;2.50;;;;;;;-0.22;75.59;102480.97;5105318;27;20216;-71
2021/03/06 08:52:25;;;;;;;3.33;2.73;;;;;;;-0.08;75.41;102478.22;5099735;27;20201;-71
2021/03/06 08:54:51;;;;;;;4.00;3.27;;;;;;;-0.06;75.30;102479.16;5098491;27;20573;-71
2021/03/06 08:57:26;;;;;;;4.53;3.00;;;;;;;-0.01;75.41;102475.13;5106399;27;20218;-71
2021/03/06 08:59:52;;;;;;;4.47;2.60;;;;;;;0.09;75.29;102479.88;5084350;28;20249;-71
2021/03/06 09:02:20;;;;;;;3.10;2.47;;;;;;;0.21;75.68;102476.97;5107766;27;20184;-71
2021/03/06 09:04:47;;;;;;;5.73;2.33;;;;;;;0.27;76.21;102473.84;5111251;27;20212;-71
2021/03/06 09:07:26;;;;;;;3.60;2.40;;;;;;;0.46;75.21;102480.66;5113226;27;20217;-71
2021/03/06 09:09:52;;;;;;;4.40;2.63;;;;;;;0.56;74.51;102478.59;5093981;28;20185;-72
2021/03/06 09:12:18;;;;;;;3.53;2.03;;;;;;;0.64;75.18;102473.78;5110171;27;20679;-72
2021/03/06 09:14:46;;;;;;;6.97;3.57;;;;;;;0.77;73.78;102484.59;5104797;27;20222;-71
2021/03/06 09:17:12;;;;;;;3.83;1.97;;;;;;;0.77;73.31;102490.59;5098333;27;20221;-71
2021/03/06 09:19:38;;;;;;;2.87;2.13;;;;;;;0.87;72.83;102489.34;5101900;27;20207;-71
2021/03/06 09:22:06;;;;;;;2.93;1.80;;;;;;;0.86;72.76;102491.03;5107853;27;20219;-71
2021/03/06 09:24:44;;;;;;;5.63;2.27;;;;;;;1.01;72.44;102492.50;5093236;28;20189;-71
2021/03/06 09:27:10;;;;;;;5.43;2.77;;;;;;;1.12;73.25;102480.97;5103746;28;20246;-71
2021/03/06 09:29:36;;;;;;;4.73;2.67;;;;;;;1.22;72.82;102483.13;5103061;27;20259;-71
2021/03/06 09:32:04;;;;;;;8.17;3.70;;;;;;;1.33;71.65;102484.44;5104609;27;20194;-71
2021/03/06 09:34:29;;;;;;;6.67;2.20;;;;;;;1.27;71.48;102483.34;5103440;27;20252;-72
2021/03/06 09:36:55;;;;;;;3.73;2.73;;;;;;;1.40;71.78;102474.44;5097370;28;20290;-72
2021/03/06 09:39:25;;;;;;;4.60;2.20;;;;;;;1.41;70.86;102477.06;5100541;27;20711;-72
2021/03/06 09:41:52;;;;;;;4.37;2.00;;;;;;;1.48;71.25;102470.50;5107053;27;20225;-72
2021/03/06 09:44:19;;;;;;;4.40;2.10;;;;;;;1.52;70.94;102474.94;5095658;28;20197;-72
2021/03/06 09:46:46;;;;;;;4.70;2.67;;;;;;;1.56;70.95;102479.38;5104318;27;20568;-71
2021/03/06 09:49:14;;;;;;;2.33;1.90;;;;;;;1.60;71.55;102468.41;5103468;27;20714;-72
2021/03/06 09:51:42;;;;;;;4.13;2.63;;;;;;;1.62;70.73;102476.16;5104800;27;20204;-72
2021/03/06 09:54:10;;;;;;;4.70;2.30;;;;;;;1.76;70.10;102477.63;5100890;28;20280;-72
2021/03/06 10:00:24;;;;;;;3.23;2.23;;;;;;;2.20;70.43;102464.69;5101186;27;20579;-72
2021/03/06 10:02:51;;;;;;;3.53;2.10;;;;;;;2.39;68.76;102468.84;5100826;27;20239;-72
2021/03/06 10:05:22;;;;;;;2.60;1.73;;;;;;;2.44;67.99;102467.31;5106385;28;20192;-72
2021/03/06 10:07:50;;;;;;;2.50;2.10;;;;;;;2.54;68.39;102460.81;5102649;28;20733;-71
2021/03/06 10:10:17;;;;;;;3.87;1.80;;;;;;;2.65;66.96;102469.78;5099526;27;20196;-72
2021/03/06 10:12:45;;;;;;;1.87;1.67;;;;;;;2.56;67.47;102466.88;5103807;28;20254;-72
2021/03/06 10:15:12;;;;;;;5.30;2.00;;;;;;;2.67;66.95;102473.28;5079082;28;20220;-71
2021/03/06 10:17:39;;;;;;;3.87;1.80;;;;;;;2.79;65.75;102468.56;5100435;28;20743;-72
2021/03/06 10:20:06;;;;;;;4.20;1.70;;;;;;;2.75;65.83;102465.84;5102925;28;20193;-72
2021/03/06 10:22:43;;;;;;;3.63;1.93;;;;;;;2.80;66.09;102465.19;5096038;28;20623;-71
2021/03/06 10:25:11;;;;;;;4.07;2.50;;;;;;;3.07;65.34;102469.53;5102781;28;20245;-72
2021/03/06 10:27:39;;;;;;;9.10;1.80;;;;;;;3.18;65.58;102473.38;5104445;28;20224;-72
2021/03/06 10:30:13;;;;;;;3.13;2.00;;;;;;;3.32;64.05;102467.78;5094141;28;20235;-72
2021/03/06 10:32:41;;;;;;;3.40;1.80;;;;;;;3.31;63.65;102463.47;5093689;28;20197;-72
2021/03/06 10:35:28;;;;;;;4.13;1.83;;;;;;;3.39;62.51;102473.22;5094947;28;20221;-73
2021/03/06 10:37:55;;;;;;;4.23;1.97;;;;;;;3.37;60.62;102463.66;5102324;28;20204;-72
2021/03/06 10:40:38;;;;;;;4.70;2.73;;;;;;;3.38;62.90;102447.38;5099014;28;20526;-72
2021/03/06 10:43:04;;;;;;;3.37;2.33;;;;;;;3.43;61.00;102469.03;5109295;27;20736;-72
2021/03/06 10:45:31;;;;;;;6.17;1.83;;;;;;;3.45;60.39;102475.13;5105531;28;20560;-72
2021/03/06 10:47:58;;;;;;;4.70;1.70;;;;;;;3.51;60.08;102461.53;5104032;27;20694;-72
2021/03/06 10:50:27;;;;;;;1.97;1.63;;;;;;;3.77;61.49;102458.06;5108444;27;20186;-72
2021/03/06 10:53:09;;;;;;;4.27;1.90;;;;;;;3.84;61.66;102453.97;5108690;28;20201;-72
2021/03/06 10:55:35;;;;;;;4.17;1.87;;;;;;;3.79;60.40;102463.28;5106219;28;20193;-72
2021/03/06 10:58:02;;;;;;;3.50;1.97;;;;;;;3.49;59.10;102465.78;5100936;28;20269;-72
2021/03/06 11:00:28;;;;;;;2.70;1.53;;;;;;;3.64;60.05;102455.97;5102127;28;20186;-72
2021/03/06 11:02:56;;;;;;;4.30;2.03;;;;;;;3.85;59.67;102455.72;5108826;27;20193;-72
2021/03/06 11:05:24;;;;;;;4.07;2.10;;;;;;;3.71;58.82;102450.16;5107481;27;20593;-72
2021/03/06 11:07:51;;;;;;;5.20;2.50;;;;;;;3.63;58.52;102443.00;5086765;28;20582;-72
2021/03/06 11:10:19;;;;;;;3.47;1.93;;;;;;;3.63;59.60;102441.28;5102759;28;20208;-72
2021/03/06 11:12:53;;;;;;;4.33;2.20;;;;;;;3.66;58.29;102448.25;5081508;28;20274;-72
2021/03/06 11:15:22;;;;;;;4.77;2.67;;;;;;;3.64;59.02;102443.06;5109018;27;20216;-71
2021/03/06 11:17:51;;;;;;;3.57;2.13;;;;;;;3.65;56.64;102442.22;5092544;28;20216;-72
2021/03/06 11:20:18;;;;;;;4.83;1.73;;;;;;;3.32;54.07;102442.88;5108571;27;20189;-72
2021/03/06 11:22:45;;;;;;;5.30;3.13;;;;;;;3.26;56.50;102440.09;5107877;27;20194;-73
2021/03/06 11:25:13;;;;;;;6.17;3.60;;;;;;;3.48;55.89;102441.66;5105537;28;20273;-72
2021/03/06 11:27:49;;;;;;;4.63;2.03;;;;;;;3.42;53.25;102441.47;5106106;28;20228;-72
2021/03/06 11:30:17;;;;;;;6.17;3.53;;;;;;;3.49;52.34;102443.44;5107197;27;20683;-72
2021/03/06 11:32:44;;;;;;;5.60;3.10;;;;;;;3.30;52.77;102435.94;5101915;28;20229;-72
2021/03/06 11:35:11;;;;;;;3.33;2.13;;;;;;;3.34;54.60;102435.19;5107586;27;20221;-72
2021/03/06 11:37:37;;;;;;;5.90;3.73;;;;;;;3.45;54.57;102433.84;5104792;27;20275;-72
2021/03/06 11:40:04;;;;;;;6.90;2.63;;;;;;;3.60;55.55;102426.56;5108468;28;20553;-72
2021/03/06 11:42:30;;;;;;;2.27;1.97;;;;;;;3.73;54.81;102419.22;5104312;27;20200;-72
2021/03/06 11:44:57;;;;;;;3.03;2.40;;;;;;;3.79;52.95;102427.16;5098736;27;20716;-72
2021/03/06 11:47:23;;;;;;;3.87;1.93;;;;;;;3.84;52.92;102422.16;5101336;27;20213;-72
2021/03/06 11:49:49;;;;;;;2.53;1.60;;;;;;;3.83;52.79;102418.69;5097330;27;20243;-72
2021/03/06 11:52:15;;;;;;;2.87;1.83;;;;;;;3.76;52.74;102415.06;5107070;27;20206;-72
2021/03/06 11:54:41;;;;;;;4.53;2.03;;;;;;;4.02;53.73;102408.91;5109152;27;20347;-71
2021/03/06 11:57:08;;;;;;;2.57;1.40;;;;;;;4.01;51.98;102407.16;5104898;28;20193;-72